createdAt,value
2023-12-24T00:00:50.597Z,8.74
2023-12-24T00:03:17.941Z,8.74
2023-12-24T00:05:47.402Z,8.72
2023-12-24T00:08:16.683Z,8.69
2023-12-24T00:10:43.280Z,8.62
2023-12-24T00:13:12.569Z,8.46
2023-12-24T00:15:42.079Z,8.61
2023-12-24T00:18:22.119Z,8.51
2023-12-24T00:20:55.061Z,8.53
2023-12-24T00:23:21.917Z,8.72
2023-12-24T00:25:50.528Z,8.77
2023-12-24T00:28:17.287Z,8.74
2023-12-24T00:30:48.408Z,8.81
2023-12-24T00:33:22.618Z,8.79
2023-12-24T00:35:49.985Z,8.57
2023-12-24T00:38:19.492Z,8.63
2023-12-24T00:40:52.915Z,8.75
2023-12-24T00:43:19.533Z,8.78
2023-12-24T00:45:48.928Z,8.81
2023-12-24T00:48:21.685Z,8.63
2023-12-24T00:50:51.194Z,8.82
2023-12-24T00:53:18.998Z,8.86
2023-12-24T00:55:51.790Z,8.72
2023-12-24T00:58:18.635Z,8.90
2023-12-24T01:01:00.447Z,8.89
2023-12-24T01:03:31.239Z,8.87
2023-12-24T01:05:58.038Z,8.71
2023-12-24T01:08:24.751Z,8.85
2023-12-24T01:10:53.742Z,8.90
2023-12-24T01:13:20.873Z,8.88
2023-12-24T01:15:52.486Z,9.00
2023-12-24T01:18:25.345Z,8.87
2023-12-24T01:20:51.922Z,8.98
2023-12-24T01:23:24.628Z,8.95
2023-12-24T01:25:52.152Z,8.89
2023-12-24T01:28:23.895Z,8.78
2023-12-24T01:30:50.417Z,8.75
2023-12-24T01:33:22.923Z,8.67
2023-12-24T01:35:49.703Z,8.59
2023-12-24T01:38:25.153Z,8.48
2023-12-24T01:40:51.806Z,8.23
2023-12-24T01:43:21.609Z,8.40
2023-12-24T01:45:48.393Z,8.29
2023-12-24T01:48:18.237Z,8.34
2023-12-24T01:50:57.137Z,8.31
2023-12-24T01:53:30.615Z,8.32
2023-12-24T01:55:57.720Z,8.11
2023-12-24T01:58:25.750Z,8.31
2023-12-24T02:00:53.051Z,8.28
2023-12-24T02:03:29.023Z,8.12
2023-12-24T02:05:57.588Z,8.38
2023-12-24T02:08:26.136Z,8.32
2023-12-24T02:10:52.767Z,8.30
2023-12-24T02:13:19.799Z,8.38
2023-12-24T02:15:55.527Z,8.16
2023-12-24T02:18:22.083Z,8.43
2023-12-24T02:20:48.739Z,8.45
2023-12-24T02:23:15.282Z,8.51
2023-12-24T02:25:53.490Z,8.23
2023-12-24T02:28:24.772Z,8.43
2023-12-24T02:31:03.763Z,8.44
2023-12-24T02:33:34.374Z,8.31
2023-12-24T02:36:02.300Z,8.42
2023-12-24T02:38:31.461Z,8.53
2023-12-24T02:41:00.436Z,8.35
2023-12-24T02:43:29.994Z,8.30
2023-12-24T02:45:56.748Z,8.52
2023-12-24T02:48:26.637Z,8.28
2023-12-24T02:50:55.198Z,8.32
2023-12-24T02:53:23.961Z,8.40
2023-12-24T02:55:56.178Z,8.37
2023-12-24T02:58:24.365Z,8.27
2023-12-24T03:00:50.960Z,8.23
2023-12-24T03:03:20.328Z,8.40
2023-12-24T03:05:50.834Z,8.36
2023-12-24T03:08:20.430Z,8.48
2023-12-24T03:10:49.495Z,8.35
2023-12-24T03:13:16.055Z,8.42
2023-12-24T03:15:42.615Z,8.38
2023-12-24T03:18:09.222Z,8.37
2023-12-24T03:20:59.779Z,8.37
2023-12-24T03:24:05.438Z,8.38
2023-12-24T03:26:25.256Z,8.50
2023-12-24T03:28:53.655Z,8.43
2023-12-24T03:31:24.073Z,8.45
2023-12-24T03:33:50.652Z,8.56
2023-12-24T03:36:24.854Z,8.31
2023-12-24T03:38:51.323Z,8.56
2023-12-24T03:43:58.172Z,8.53
2023-12-24T03:46:24.721Z,8.59
2023-12-24T03:48:51.323Z,8.59
2023-12-24T03:51:20.535Z,8.45
2023-12-24T03:53:52.997Z,8.71
2023-12-24T03:56:27.993Z,8.66
2023-12-24T03:58:55.819Z,8.61
2023-12-24T04:01:29.211Z,8.55
2023-12-24T04:03:56.145Z,8.80
2023-12-24T04:06:22.710Z,8.81
2023-12-24T04:08:52.046Z,8.81
2023-12-24T04:11:33.835Z,8.59
2023-12-24T04:14:00.487Z,8.74
2023-12-24T04:16:27.198Z,8.81
2023-12-24T04:19:00.999Z,8.62
2023-12-24T04:21:34.690Z,8.69
2023-12-24T04:24:05.154Z,8.89
2023-12-24T04:26:39.470Z,8.78
2023-12-24T04:29:09.469Z,8.78
2023-12-24T04:31:39.588Z,8.96
2023-12-24T04:34:10.457Z,8.74
2023-12-24T04:36:37.034Z,8.98
2023-12-24T04:39:03.625Z,8.75
2023-12-24T04:41:34.794Z,8.89
2023-12-24T04:44:06.178Z,8.93
2023-12-24T04:46:32.888Z,8.97
2023-12-24T04:48:59.453Z,8.91
2023-12-24T04:51:26.313Z,8.92
2023-12-24T04:53:59.012Z,8.82
2023-12-24T04:56:28.752Z,9.00
2023-12-24T04:59:00.804Z,8.82
2023-12-24T05:01:27.852Z,8.86
2023-12-24T05:03:54.554Z,8.99
2023-12-24T05:06:23.738Z,9.02
2023-12-24T05:08:52.500Z,9.11
2023-12-24T05:11:28.274Z,8.99
2023-12-24T05:13:54.860Z,9.16
2023-12-24T05:16:23.454Z,8.95
2023-12-24T05:18:56.113Z,8.99
2023-12-24T05:21:26.817Z,9.00
2023-12-24T05:23:57.414Z,9.04
2023-12-24T05:26:26.395Z,9.03
2023-12-24T05:28:59.166Z,9.29
2023-12-24T05:31:28.376Z,9.26
2023-12-24T05:33:54.957Z,9.20
2023-12-24T05:36:21.799Z,9.10
2023-12-24T05:39:09.664Z,9.29
2023-12-24T05:41:38.874Z,9.21
2023-12-24T05:44:14.664Z,9.26
2023-12-24T05:49:28.182Z,9.16
2023-12-24T05:52:03.314Z,9.14
2023-12-24T05:54:36.805Z,9.30
2023-12-24T05:57:03.498Z,9.16
2023-12-24T05:59:31.247Z,9.36
2023-12-24T06:02:00.720Z,9.16
2023-12-24T06:04:27.408Z,9.27
2023-12-24T06:07:20.810Z,9.26
2023-12-24T06:09:51.666Z,9.19
2023-12-24T06:14:58.620Z,9.24
2023-12-24T06:17:37.410Z,9.37
2023-12-24T06:20:24.725Z,9.23
2023-12-24T06:22:54.911Z,9.24
2023-12-24T06:25:41.201Z,9.23
2023-12-24T06:28:13.976Z,9.40
2023-12-24T06:30:40.529Z,9.47
2023-12-24T06:33:10.338Z,9.39
2023-12-24T06:35:42.549Z,9.49
2023-12-24T06:41:05.855Z,9.72
2023-12-24T06:43:50.440Z,9.66
2023-12-24T06:46:24.667Z,9.78
2023-12-24T06:48:58.686Z,9.56
2023-12-24T06:51:27.963Z,9.56
2023-12-24T06:54:15.671Z,9.61
2023-12-24T06:56:43.789Z,9.65
2023-12-24T06:59:10.515Z,9.76
2023-12-24T07:01:37.333Z,9.74
2023-12-24T07:04:05.593Z,9.69
2023-12-24T07:06:34.520Z,9.56
2023-12-24T07:09:03.528Z,9.73
2023-12-24T07:12:12.650Z,9.62
2023-12-24T07:14:41.557Z,9.56
2023-12-24T07:17:09.188Z,9.60
2023-12-24T07:19:45.067Z,9.59
2023-12-24T07:22:11.840Z,9.70
2023-12-24T07:24:54.008Z,9.83
2023-12-24T07:27:21.770Z,9.86
2023-12-24T07:29:50.523Z,9.83
2023-12-24T07:32:22.827Z,9.81
2023-12-24T07:34:52.423Z,9.90
2023-12-24T07:37:28.131Z,9.83
2023-12-24T07:39:59.721Z,9.90
2023-12-24T07:42:28.299Z,9.86
2023-12-24T07:44:59.846Z,9.93
2023-12-24T07:47:28.163Z,10.03
2023-12-24T07:49:57.224Z,9.92
2023-12-24T07:52:34.308Z,9.92
2023-12-24T07:55:00.880Z,10.03
2023-12-24T07:57:30.974Z,10.04
2023-12-24T08:00:24.744Z,9.91
2023-12-24T08:02:55.167Z,9.96
2023-12-24T08:05:44.108Z,10.05
2023-12-24T08:08:10.674Z,9.98
2023-12-24T08:10:45.763Z,10.03
2023-12-24T08:13:20.544Z,9.94
2023-12-24T08:15:53.765Z,10.09
2023-12-24T08:18:26.191Z,10.07
2023-12-24T08:21:27.424Z,9.98
2023-12-24T08:23:53.725Z,10.02
2023-12-24T08:26:26.146Z,9.91
2023-12-24T08:28:57.263Z,9.97
2023-12-24T08:31:32.298Z,10.10
2023-12-24T08:34:34.338Z,10.07
2023-12-24T08:37:14.321Z,10.05
2023-12-24T08:39:43.850Z,10.02
2023-12-24T08:42:12.353Z,10.02
2023-12-24T08:44:46.343Z,10.13
2023-12-24T08:47:38.401Z,10.16
2023-12-24T08:50:14.856Z,10.01
2023-12-24T08:52:55.380Z,10.25
2023-12-24T08:59:01.450Z,10.17
2023-12-24T09:01:28.138Z,10.21
2023-12-24T09:04:01.648Z,10.24
2023-12-24T09:09:10.853Z,10.20
2023-12-24T09:11:40.225Z,10.23
2023-12-24T09:14:08.715Z,10.29
2023-12-24T09:16:51.359Z,10.39
2023-12-24T09:19:30.315Z,10.43
2023-12-24T09:22:13.932Z,10.47
2023-12-24T09:24:41.848Z,10.44
2023-12-24T09:27:10.972Z,10.55
2023-12-24T09:29:39.740Z,10.50
2023-12-24T09:32:09.394Z,10.41
2023-12-24T09:37:29.262Z,10.48
2023-12-24T09:39:55.858Z,10.63
2023-12-24T09:42:22.515Z,10.57
2023-12-24T09:44:52.046Z,10.52
2023-12-24T09:47:21.622Z,10.59
2023-12-24T09:49:51.395Z,10.55
2023-12-24T09:52:22.508Z,10.52
2023-12-24T09:54:53.497Z,10.49
2023-12-24T09:57:25.601Z,10.54
2023-12-24T09:59:59.522Z,10.56
2023-12-24T10:02:42.066Z,10.51
2023-12-24T10:05:14.007Z,10.55
2023-12-24T10:08:04.172Z,10.38
2023-12-24T10:10:39.792Z,10.42
2023-12-24T10:13:12.358Z,10.43
2023-12-24T10:15:45.410Z,10.50
2023-12-24T10:18:29.740Z,10.52
2023-12-24T10:21:23.200Z,10.63
2023-12-24T10:23:51.223Z,10.75
2023-12-24T10:26:22.199Z,10.55
2023-12-24T10:29:18.713Z,10.60
2023-12-24T10:31:52.806Z,10.85
2023-12-24T10:34:22.504Z,10.70
2023-12-24T10:37:02.670Z,10.71
2023-12-24T10:39:59.396Z,10.73
2023-12-24T10:42:26.418Z,10.78
2023-12-24T10:44:57.080Z,10.93
2023-12-24T10:47:23.832Z,10.93
2023-12-24T10:49:51.584Z,10.98
2023-12-24T10:52:34.361Z,10.99
2023-12-24T10:55:06.916Z,10.89
2023-12-24T10:58:01.169Z,11.13
2023-12-24T11:00:31.071Z,10.99
2023-12-24T11:03:10.096Z,10.91
2023-12-24T11:05:42.668Z,11.15
2023-12-24T11:08:28.795Z,11.18
2023-12-24T11:11:02.321Z,11.01
2023-12-24T11:13:32.034Z,11.23
2023-12-24T11:16:24.650Z,11.22
2023-12-24T11:18:51.376Z,11.06
2023-12-24T11:21:28.075Z,11.01
2023-12-24T11:24:12.525Z,11.27
2023-12-24T11:26:50.707Z,11.18
2023-12-24T11:29:57.453Z,11.31
2023-12-24T11:32:27.553Z,11.36
2023-12-24T11:35:03.842Z,11.14
2023-12-24T11:37:39.245Z,11.35
2023-12-24T11:40:24.199Z,11.34
2023-12-24T11:42:55.017Z,11.20
2023-12-24T11:45:29.430Z,11.25
2023-12-24T11:47:56.677Z,11.32
2023-12-24T11:50:36.873Z,11.23
2023-12-24T11:53:24.405Z,11.10
2023-12-24T11:56:07.243Z,11.19
2023-12-24T11:58:50.803Z,11.07
2023-12-24T12:01:33.161Z,11.12
2023-12-24T12:04:06.808Z,11.09
2023-12-24T12:09:30.849Z,11.07
2023-12-24T12:12:20.129Z,11.06
2023-12-24T12:14:47.270Z,11.10
2023-12-24T12:17:32.038Z,11.01
2023-12-24T12:20:08.939Z,11.09
2023-12-24T12:22:35.417Z,10.97
2023-12-24T12:25:12.941Z,11.01
2023-12-24T12:30:31.547Z,11.05
2023-12-24T12:35:55.406Z,10.95
2023-12-24T12:38:24.831Z,11.16
2023-12-24T12:40:54.082Z,11.00
2023-12-24T12:43:29.813Z,11.08
2023-12-24T12:45:56.385Z,11.22
2023-12-24T12:48:26.057Z,11.14
2023-12-24T12:50:54.251Z,11.03
2023-12-24T12:53:56.512Z,11.08
2023-12-24T12:56:23.066Z,11.22
2023-12-24T12:59:00.153Z,11.15
2023-12-24T13:01:41.779Z,11.06
2023-12-24T13:04:14.501Z,11.21
2023-12-24T13:06:50.575Z,11.28
2023-12-24T13:09:20.811Z,11.06
2023-12-24T13:14:59.879Z,11.12
2023-12-24T13:17:26.912Z,11.13
2023-12-24T13:19:55.142Z,11.29
2023-12-24T13:22:31.648Z,11.12
2023-12-24T13:25:04.232Z,11.27
2023-12-24T13:27:43.574Z,11.28
2023-12-24T13:30:14.710Z,11.07
2023-12-24T13:32:45.144Z,11.04
2023-12-24T13:35:13.030Z,11.24
2023-12-24T13:37:39.757Z,11.00
2023-12-24T13:40:12.657Z,11.15
2023-12-24T13:42:57.644Z,11.07
2023-12-24T13:45:30.177Z,11.11
2023-12-24T13:48:09.641Z,11.27
2023-12-24T13:50:40.445Z,11.24
2023-12-24T13:53:23.728Z,11.24
2023-12-24T13:55:58.567Z,11.25
2023-12-24T13:58:25.652Z,11.36
2023-12-24T14:01:00.434Z,11.31
2023-12-24T14:03:34.539Z,11.29
2023-12-24T14:06:10.220Z,11.25
2023-12-24T14:08:39.684Z,11.25
2023-12-24T14:11:06.529Z,11.32
2023-12-24T14:13:38.726Z,11.38
2023-12-24T14:16:09.287Z,11.38
2023-12-24T14:18:38.485Z,11.22
2023-12-24T14:21:21.876Z,11.25
2023-12-24T14:23:48.727Z,11.16
2023-12-24T14:26:15.425Z,11.22
2023-12-24T14:28:46.753Z,11.15
2023-12-24T14:31:13.562Z,11.14
2023-12-24T14:33:40.375Z,11.17
2023-12-24T14:36:08.233Z,11.32
2023-12-24T14:38:38.277Z,11.23
2023-12-24T14:41:04.845Z,11.22
2023-12-24T14:43:31.799Z,11.30
2023-12-24T14:46:03.069Z,11.30
2023-12-24T14:48:58.622Z,11.22
2023-12-24T14:51:29.765Z,11.23
2023-12-24T14:54:02.506Z,11.11
2023-12-24T14:56:38.052Z,11.07
2023-12-24T14:59:11.571Z,11.16
2023-12-24T15:01:45.909Z,11.19
2023-12-24T15:04:23.868Z,11.20
2023-12-24T15:07:16.549Z,11.05
2023-12-24T15:10:27.342Z,11.05
2023-12-24T15:13:14.412Z,11.05
2023-12-24T15:15:53.006Z,11.05
2023-12-24T15:19:05.551Z,11.00
2023-12-24T15:21:45.842Z,11.01
2023-12-24T15:24:56.631Z,11.21
2023-12-24T15:27:54.044Z,11.14
2023-12-24T15:30:24.655Z,11.02
2023-12-24T15:32:54.323Z,11.15
2023-12-24T15:35:52.660Z,11.03
2023-12-24T15:38:40.243Z,11.07
2023-12-24T15:41:20.784Z,11.20
2023-12-24T15:43:47.447Z,11.24
2023-12-24T15:46:50.620Z,11.19
2023-12-24T15:49:26.196Z,11.20
2023-12-24T15:52:09.818Z,11.23
2023-12-24T15:55:01.780Z,11.20
2023-12-24T15:57:38.564Z,11.16
2023-12-24T16:00:21.786Z,11.25
2023-12-24T16:03:01.244Z,11.16
2023-12-24T16:08:28.732Z,11.23
2023-12-24T16:10:56.637Z,11.44
2023-12-24T16:13:27.598Z,11.34
2023-12-24T16:16:23.377Z,11.31
2023-12-24T16:19:13.054Z,11.31
2023-12-24T16:21:54.235Z,11.34
2023-12-24T16:24:54.345Z,11.38
2023-12-24T16:30:20.451Z,11.46
2023-12-24T16:38:56.547Z,11.46
2023-12-24T16:42:25.265Z,11.46
2023-12-24T16:51:36.265Z,11.53
2023-12-24T16:54:24.772Z,11.50
2023-12-24T16:57:27.451Z,11.47
2023-12-24T17:00:29.676Z,11.59
2023-12-24T17:02:41.911Z,11.55
2023-12-24T17:05:09.019Z,11.55
2023-12-24T17:07:42.861Z,11.53
2023-12-24T17:10:32.975Z,11.47
2023-12-24T17:13:02.674Z,11.51
2023-12-24T17:15:37.775Z,11.52
2023-12-24T17:18:23.063Z,11.62
2023-12-24T17:20:59.230Z,11.53
2023-12-24T17:23:57.992Z,11.66
2023-12-24T17:26:24.564Z,11.55
2023-12-24T17:29:05.965Z,11.59
2023-12-24T17:34:31.242Z,11.60
2023-12-24T17:36:59.963Z,11.56
2023-12-24T17:39:30.025Z,11.52
2023-12-24T17:44:37.154Z,11.49
2023-12-24T17:47:06.360Z,11.55
2023-12-24T17:49:43.668Z,11.52
2023-12-24T17:52:35.650Z,11.59
2023-12-24T17:58:05.757Z,11.60
2023-12-24T18:00:38.054Z,11.74
2023-12-24T18:03:10.949Z,11.56
2023-12-24T18:06:05.557Z,11.67
2023-12-24T18:08:40.843Z,11.46
2023-12-24T18:11:34.760Z,11.43
2023-12-24T18:14:04.532Z,11.51
2023-12-24T18:27:51.513Z,11.66
2023-12-24T18:30:20.672Z,11.48
2023-12-24T18:32:50.428Z,11.61
2023-12-24T18:35:24.643Z,11.44
2023-12-24T18:38:06.340Z,11.43
2023-12-24T18:43:55.313Z,11.54
2023-12-24T18:46:33.102Z,11.37
2023-12-24T18:49:23.677Z,11.43
2023-12-24T18:54:50.560Z,11.48
2023-12-24T18:58:06.748Z,11.63
2023-12-24T19:00:43.555Z,11.51
2023-12-24T19:03:11.112Z,11.48
2023-12-24T19:05:40.099Z,11.74
2023-12-24T19:08:10.373Z,11.61
2023-12-24T19:13:28.825Z,11.54
2023-12-24T19:15:55.597Z,11.63
2023-12-24T19:18:34.889Z,11.61
2023-12-24T19:21:01.465Z,11.57
2023-12-24T19:23:43.665Z,11.48
2023-12-24T19:26:26.525Z,11.45
2023-12-24T19:29:23.713Z,11.33
2023-12-24T19:31:50.412Z,11.35
2023-12-24T19:36:58.867Z,11.38
2023-12-24T19:39:25.636Z,11.40
2023-12-24T19:41:52.220Z,11.29
2023-12-24T19:44:30.937Z,11.36
2023-12-24T19:46:57.890Z,11.36
2023-12-24T19:49:24.596Z,11.42
2023-12-24T19:51:51.149Z,11.49
2023-12-24T19:54:20.389Z,11.25
2023-12-24T19:56:55.464Z,11.25
2023-12-24T19:59:44.370Z,11.33
2023-12-24T20:02:35.854Z,11.24
2023-12-24T20:05:01.172Z,11.31
2023-12-24T20:07:30.838Z,11.24
2023-12-24T20:10:02.027Z,11.21
2023-12-24T20:12:28.802Z,11.23
2023-12-24T20:14:58.036Z,11.32
2023-12-24T20:17:30.926Z,11.33
2023-12-24T20:19:57.577Z,11.32
2023-12-24T20:22:26.657Z,11.21
2023-12-24T20:24:59.364Z,11.42
2023-12-24T20:27:28.665Z,11.14
2023-12-24T20:29:55.229Z,11.22
2023-12-24T20:32:24.968Z,11.26
2023-12-24T20:35:00.256Z,11.34
2023-12-24T20:37:28.869Z,11.13
2023-12-24T20:40:01.781Z,11.11
2023-12-24T20:45:21.317Z,11.27
2023-12-24T20:47:54.054Z,11.26
2023-12-24T20:50:20.667Z,11.25
2023-12-24T20:52:49.945Z,11.40
2023-12-24T20:55:16.508Z,11.44
2023-12-24T20:57:57.245Z,11.46
2023-12-24T21:00:29.446Z,11.24
2023-12-24T21:02:58.457Z,11.26
2023-12-24T21:05:28.876Z,11.21
2023-12-24T21:07:58.312Z,11.41
2023-12-24T21:10:31.689Z,11.40
2023-12-24T21:13:07.125Z,11.40
2023-12-24T21:15:33.860Z,11.47
2023-12-24T21:18:02.917Z,11.38
2023-12-24T21:20:34.093Z,11.29
2023-12-24T21:23:10.503Z,11.36
2023-12-24T21:25:54.528Z,11.33
2023-12-24T21:28:27.234Z,11.20
2023-12-24T21:30:56.181Z,11.33
2023-12-24T21:33:22.899Z,11.23
2023-12-24T21:35:52.462Z,11.26
2023-12-24T21:38:22.085Z,11.11
2023-12-24T21:40:51.767Z,11.26
2023-12-24T21:43:21.224Z,11.15
2023-12-24T21:45:50.136Z,11.08
2023-12-24T21:48:16.960Z,11.29
2023-12-24T21:53:40.361Z,11.24
2023-12-24T21:54:30.908Z,11.20
2023-12-24T21:56:28.260Z,11.09
2023-12-24T21:58:57.549Z,11.25
2023-12-24T22:01:32.289Z,11.16
2023-12-24T22:03:59.998Z,11.21
2023-12-24T22:06:32.330Z,11.26
2023-12-24T22:08:59.051Z,11.18
2023-12-24T22:11:28.847Z,11.25
2023-12-24T22:14:06.512Z,11.21
2023-12-24T22:16:44.880Z,11.30
2023-12-24T22:19:11.926Z,11.24
2023-12-24T22:21:54.967Z,11.25
2023-12-24T22:24:28.849Z,11.35
2023-12-24T22:26:55.472Z,11.35
2023-12-24T22:29:25.000Z,11.36
2023-12-24T22:31:57.036Z,11.41
2023-12-24T22:34:26.144Z,11.30
2023-12-24T22:36:54.656Z,11.41
2023-12-24T22:39:23.964Z,11.42
2023-12-24T22:41:50.456Z,11.24
2023-12-24T22:44:23.260Z,11.25
2023-12-24T22:46:55.409Z,11.25
2023-12-24T22:49:25.025Z,11.25
2023-12-24T22:51:54.721Z,11.42
2023-12-24T22:54:24.050Z,11.32
2023-12-24T22:56:52.939Z,11.24
2023-12-24T22:59:24.434Z,11.21
2023-12-24T23:01:59.725Z,11.32
2023-12-24T23:04:35.747Z,11.27
2023-12-24T23:07:08.029Z,11.36
2023-12-24T23:09:40.496Z,11.44
2023-12-24T23:12:07.370Z,11.44
2023-12-24T23:14:45.098Z,11.31
2023-12-24T23:17:11.713Z,11.47
2023-12-24T23:19:38.325Z,11.48
2023-12-24T23:22:09.198Z,11.27
2023-12-24T23:24:38.795Z,11.36
2023-12-24T23:27:19.876Z,11.34
2023-12-24T23:29:50.717Z,11.33
2023-12-24T23:32:20.540Z,11.27
2023-12-24T23:34:47.041Z,11.31
2023-12-24T23:37:21.902Z,11.29
2023-12-24T23:39:51.207Z,11.36
2023-12-24T23:44:58.344Z,11.23
2023-12-24T23:47:27.230Z,11.25
2023-12-24T23:49:54.064Z,11.23
2023-12-24T23:52:20.625Z,11.28
2023-12-24T23:54:51.157Z,11.24
2023-12-24T23:57:20.104Z,11.21
2023-12-24T23:59:54.830Z,11.21
